Wilmington, OH

11:18 PM EDT on April 30, 2017 (GMT -0400)
Truesdell St | | Change Station

Elev 1023 ft 39.44 °N, 83.83 °W | Updated 33 seconds ago

Light Rain
Light Rain
67.5 °F
Feels Like 67.5 °F
N
2.0
Wind Variable Wind from NNE

Today
High -- | Low -- °F
--% Chance of Precip.
Yesterday
High -- | Low -- °F
Precip. -- in
Pressure 29.77 in
Visibility 10.0 miles
Clouds Mostly Cloudy 11000 ft
Dew Point 64 °F
Humidity 88%
Rainfall 0.18 in
Snow Depth Not available.
6:37 AM 8:28 PM
Waxing Crescent, 28% visible
METAR KILN 010254Z AUTO 17011KT 10SM -RA BKN110 20/18 A2979 RMK AO2 SLP080 P0001 60008 T02000178 58010
Pressure 29.77 in
Visibility 10.0 miles
Clouds Mostly Cloudy 11000 ft
Dew Point 64 °F
Humidity 88%
Rainfall 0.18 in
Snow Depth Not available.
6:37 AM 8:28 PM
Waxing Crescent, 28% visible
METAR KILN 010254Z AUTO 17011KT 10SM -RA BKN110 20/18 A2979 RMK AO2 SLP080 P0001 60008 T02000178 58010

Get Severe Weather Alerts

Thanks for signing up!

Be on the lookout for a verification email in your inbox.

You'll start receiving the daily forecast at 8 AM.

×

10-Day Weather Forecast

Almanac

Astronomy

Apr. 30, 2017 Rise Set
Actual Time
Civil Twilight
Nautical Twilight
Astronomical Twilight
Moon
Length of Visible Light
Length of Day
Tomorrow will be .
, % of the Moon is Illuminated

Today's Extremes

State Highs State Lows

Community

WunderPhotos

WunderBlog® & News

Nearby

Air Quality

  Air Quality AQ Index Pollutant
Not available.

Snow Depth

Station Depth Elevation

Earthquake Activity

City Distance Mag. Time & Date
Minimum magnitude displayed is 2.5.

Coastal Water Temperatures

Place Temperature

Stations

Nearby Weather Stations

Station Location Temp. Windchill Dew Point Humidity Wind Precip. Elev Updated Type
                   

Watches & Warnings

There are currently no watches in effect.